sensor_id;sensor_type;location;lat;lon;timestamp;temperature;humidity
54429;DHT22;40337;52.978;6.310;2022-09-01T00:01:24;15.30;99.90
54429;DHT22;40337;52.978;6.310;2022-09-01T00:03:52;15.30;99.90
54429;DHT22;40337;52.978;6.310;2022-09-01T00:06:22;15.30;99.90
54429;DHT22;40337;52.978;6.310;2022-09-01T00:08:55;15.20;99.90
54429;DHT22;40337;52.978;6.310;2022-09-01T00:11:23;15.20;99.90
54429;DHT22;40337;52.978;6.310;2022-09-01T00:13:49;15.20;99.90
54429;DHT22;40337;52.978;6.310;2022-09-01T00:16:16;15.10;99.90
54429;DHT22;40337;52.978;6.310;2022-09-01T00:18:44;15.00;99.90
54429;DHT22;40337;52.978;6.310;2022-09-01T00:21:18;15.00;99.90
54429;DHT22;40337;52.978;6.310;2022-09-01T00:23:45;15.00;99.90
54429;DHT22;40337;52.978;6.310;2022-09-01T00:26:11;14.90;99.90
54429;DHT22;40337;52.978;6.310;2022-09-01T00:28:37;14.90;99.90
54429;DHT22;40337;52.978;6.310;2022-09-01T00:31:04;14.80;99.90
54429;DHT22;40337;52.978;6.310;2022-09-01T00:33:31;14.80;99.90
54429;DHT22;40337;52.978;6.310;2022-09-01T00:35:57;14.80;99.90
54429;DHT22;40337;52.978;6.310;2022-09-01T00:38:22;14.80;99.90
54429;DHT22;40337;52.978;6.310;2022-09-01T00:40:48;14.70;99.90
54429;DHT22;40337;52.978;6.310;2022-09-01T00:43:34;14.70;99.90
54429;DHT22;40337;52.978;6.310;2022-09-01T00:46:02;14.70;99.90
54429;DHT22;40337;52.978;6.310;2022-09-01T00:48:28;14.70;99.90
54429;DHT22;40337;52.978;6.310;2022-09-01T00:50:54;14.60;99.90
54429;DHT22;40337;52.978;6.310;2022-09-01T00:53:20;14.60;99.90
54429;DHT22;40337;52.978;6.310;2022-09-01T00:55:45;14.60;99.90
54429;DHT22;40337;52.978;6.310;2022-09-01T00:58:11;14.50;99.90
54429;DHT22;40337;52.978;6.310;2022-09-01T01:00:37;14.50;99.90
54429;DHT22;40337;52.978;6.310;2022-09-01T01:03:09;14.50;99.90
54429;DHT22;40337;52.978;6.310;2022-09-01T01:05:38;14.50;99.90
54429;DHT22;40337;52.978;6.310;2022-09-01T01:08:06;14.40;99.90
54429;DHT22;40337;52.978;6.310;2022-09-01T01:10:38;14.40;99.90
54429;DHT22;40337;52.978;6.310;2022-09-01T01:13:09;14.40;99.90
54429;DHT22;40337;52.978;6.310;2022-09-01T01:15:35;14.40;99.90
54429;DHT22;40337;52.978;6.310;2022-09-01T01:18:01;14.40;99.90
54429;DHT22;40337;52.978;6.310;2022-09-01T01:20:30;14.40;99.90
54429;DHT22;40337;52.978;6.310;2022-09-01T01:23:35;14.30;99.90
54429;DHT22;40337;52.978;6.310;2022-09-01T01:26:05;14.30;99.90
54429;DHT22;40337;52.978;6.310;2022-09-01T01:28:34;14.20;99.90
54429;DHT22;40337;52.978;6.310;2022-09-01T01:31:09;14.20;99.90
54429;DHT22;40337;52.978;6.310;2022-09-01T01:33:44;14.20;99.90
54429;DHT22;40337;52.978;6.310;2022-09-01T01:36:13;14.20;99.90
54429;DHT22;40337;52.978;6.310;2022-09-01T01:38:42;14.20;99.90
54429;DHT22;40337;52.978;6.310;2022-09-01T01:41:09;14.10;99.90
54429;DHT22;40337;52.978;6.310;2022-09-01T01:43:35;14.10;99.90
54429;DHT22;40337;52.978;6.310;2022-09-01T01:46:03;14.10;99.90
54429;DHT22;40337;52.978;6.310;2022-09-01T01:48:30;14.10;99.90
54429;DHT22;40337;52.978;6.310;2022-09-01T01:50:59;14.00;99.90
54429;DHT22;40337;52.978;6.310;2022-09-01T01:53:27;14.10;99.90
54429;DHT22;40337;52.978;6.310;2022-09-01T01:55:52;14.00;99.90
54429;DHT22;40337;52.978;6.310;2022-09-01T01:58:22;14.00;99.90
54429;DHT22;40337;52.978;6.310;2022-09-01T02:00:51;14.00;99.90
54429;DHT22;40337;52.978;6.310;2022-09-01T02:03:21;14.00;99.90
54429;DHT22;40337;52.978;6.310;2022-09-01T02:05:51;13.90;99.90
54429;DHT22;40337;52.978;6.310;2022-09-01T02:08:17;13.90;99.90
54429;DHT22;40337;52.978;6.310;2022-09-01T02:10:47;13.90;99.90
54429;DHT22;40337;52.978;6.310;2022-09-01T02:13:15;13.80;99.90
54429;DHT22;40337;52.978;6.310;2022-09-01T02:15:44;13.80;99.90
54429;DHT22;40337;52.978;6.310;2022-09-01T02:18:20;13.80;99.90
54429;DHT22;40337;52.978;6.310;2022-09-01T02:20:47;13.80;99.90
54429;DHT22;40337;52.978;6.310;2022-09-01T02:23:14;13.80;99.90
54429;DHT22;40337;52.978;6.310;2022-09-01T02:25:43;13.70;99.90
54429;DHT22;40337;52.978;6.310;2022-09-01T02:28:14;13.70;99.90
54429;DHT22;40337;52.978;6.310;2022-09-01T02:30:47;13.70;99.90
54429;DHT22;40337;52.978;6.310;2022-09-01T02:33:14;13.70;99.90
54429;DHT22;40337;52.978;6.310;2022-09-01T02:35:47;13.70;99.90
54429;DHT22;40337;52.978;6.310;2022-09-01T02:38:14;13.70;99.90
54429;DHT22;40337;52.978;6.310;2022-09-01T02:40:42;13.70;99.90
54429;DHT22;40337;52.978;6.310;2022-09-01T02:43:10;13.60;99.90
54429;DHT22;40337;52.978;6.310;2022-09-01T02:45:39;13.60;99.90
54429;DHT22;40337;52.978;6.310;2022-09-01T02:48:07;13.60;99.90
54429;DHT22;40337;52.978;6.310;2022-09-01T02:50:35;13.60;99.90
54429;DHT22;40337;52.978;6.310;2022-09-01T02:53:00;13.70;99.90
54429;DHT22;40337;52.978;6.310;2022-09-01T02:55:26;13.60;99.90
54429;DHT22;40337;52.978;6.310;2022-09-01T02:57:52;13.60;99.90
54429;DHT22;40337;52.978;6.310;2022-09-01T03:00:22;13.60;99.90
54429;DHT22;40337;52.978;6.310;2022-09-01T03:02:55;13.60;99.90
54429;DHT22;40337;52.978;6.310;2022-09-01T03:05:22;13.60;99.90
54429;DHT22;40337;52.978;6.310;2022-09-01T03:07:58;13.60;99.90
54429;DHT22;40337;52.978;6.310;2022-09-01T03:10:27;13.60;99.90
54429;DHT22;40337;52.978;6.310;2022-09-01T03:12:57;13.60;99.90
54429;DHT22;40337;52.978;6.310;2022-09-01T03:15:23;13.60;99.90
54429;DHT22;40337;52.978;6.310;2022-09-01T03:17:49;13.50;99.90
54429;DHT22;40337;52.978;6.310;2022-09-01T03:20:16;13.50;99.90
54429;DHT22;40337;52.978;6.310;2022-09-01T03:22:43;13.50;99.90
54429;DHT22;40337;52.978;6.310;2022-09-01T03:25:09;13.50;99.90
54429;DHT22;40337;52.978;6.310;2022-09-01T03:27:35;13.50;99.90
54429;DHT22;40337;52.978;6.310;2022-09-01T03:30:00;13.50;99.90
54429;DHT22;40337;52.978;6.310;2022-09-01T03:32:26;13.40;99.90
54429;DHT22;40337;52.978;6.310;2022-09-01T03:34:51;13.40;99.90
54429;DHT22;40337;52.978;6.310;2022-09-01T03:37:17;13.40;99.90
54429;DHT22;40337;52.978;6.310;2022-09-01T03:39:45;13.40;99.90
54429;DHT22;40337;52.978;6.310;2022-09-01T03:42:11;13.40;99.90
54429;DHT22;40337;52.978;6.310;2022-09-01T03:44:43;13.40;99.90
54429;DHT22;40337;52.978;6.310;2022-09-01T03:47:09;13.30;99.90
54429;DHT22;40337;52.978;6.310;2022-09-01T03:49:35;13.40;99.90
54429;DHT22;40337;52.978;6.310;2022-09-01T03:52:02;13.40;99.90
54429;DHT22;40337;52.978;6.310;2022-09-01T03:54:27;13.40;99.90
54429;DHT22;40337;52.978;6.310;2022-09-01T03:56:54;13.30;99.90
54429;DHT22;40337;52.978;6.310;2022-09-01T03:59:22;13.40;99.90
54429;DHT22;40337;52.978;6.310;2022-09-01T04:01:50;13.40;99.90
54429;DHT22;40337;52.978;6.310;2022-09-01T04:04:15;13.40;99.90
54429;DHT22;40337;52.978;6.310;2022-09-01T04:06:43;13.40;99.90
54429;DHT22;40337;52.978;6.310;2022-09-01T04:09:09;13.40;99.90
54429;DHT22;40337;52.978;6.310;2022-09-01T04:11:36;13.30;99.90
54429;DHT22;40337;52.978;6.310;2022-09-01T04:14:04;13.30;99.90
54429;DHT22;40337;52.978;6.310;2022-09-01T04:16:31;13.30;99.90
54429;DHT22;40337;52.978;6.310;2022-09-01T04:19:18;13.30;99.90
54429;DHT22;40337;52.978;6.310;2022-09-01T04:21:48;13.30;99.90
54429;DHT22;40337;52.978;6.310;2022-09-01T04:24:19;13.30;99.90
54429;DHT22;40337;52.978;6.310;2022-09-01T04:26:46;13.20;99.90
54429;DHT22;40337;52.978;6.310;2022-09-01T04:29:13;13.20;99.90
54429;DHT22;40337;52.978;6.310;2022-09-01T04:31:39;13.20;99.90
54429;DHT22;40337;52.978;6.310;2022-09-01T04:34:07;13.10;99.90
54429;DHT22;40337;52.978;6.310;2022-09-01T04:36:39;13.10;99.90
54429;DHT22;40337;52.978;6.310;2022-09-01T04:39:07;13.10;99.90
54429;DHT22;40337;52.978;6.310;2022-09-01T04:41:39;13.00;99.90
54429;DHT22;40337;52.978;6.310;2022-09-01T04:44:06;13.00;99.90
54429;DHT22;40337;52.978;6.310;2022-09-01T04:46:35;12.90;99.90
54429;DHT22;40337;52.978;6.310;2022-09-01T04:49:05;12.90;99.90
54429;DHT22;40337;52.978;6.310;2022-09-01T04:51:41;12.90;99.90
54429;DHT22;40337;52.978;6.310;2022-09-01T04:54:07;12.90;99.90
54429;DHT22;40337;52.978;6.310;2022-09-01T04:56:43;12.80;99.90
54429;DHT22;40337;52.978;6.310;2022-09-01T04:59:10;12.80;99.90
54429;DHT22;40337;52.978;6.310;2022-09-01T05:01:37;12.80;99.90
54429;DHT22;40337;52.978;6.310;2022-09-01T05:04:18;12.80;99.90
54429;DHT22;40337;52.978;6.310;2022-09-01T05:06:48;12.80;99.90
54429;DHT22;40337;52.978;6.310;2022-09-01T05:09:16;12.70;99.90
54429;DHT22;40337;52.978;6.310;2022-09-01T05:11:42;12.70;99.90
54429;DHT22;40337;52.978;6.310;2022-09-01T05:14:13;12.70;99.90
54429;DHT22;40337;52.978;6.310;2022-09-01T05:16:39;12.70;99.90
54429;DHT22;40337;52.978;6.310;2022-09-01T05:19:09;12.70;99.90
54429;DHT22;40337;52.978;6.310;2022-09-01T05:21:41;12.80;99.90
54429;DHT22;40337;52.978;6.310;2022-09-01T05:24:11;12.70;99.90
54429;DHT22;40337;52.978;6.310;2022-09-01T05:26:39;12.70;99.90
54429;DHT22;40337;52.978;6.310;2022-09-01T05:29:06;12.80;99.90
54429;DHT22;40337;52.978;6.310;2022-09-01T05:31:38;12.80;99.90
54429;DHT22;40337;52.978;6.310;2022-09-01T17:57:55;20.70;71.60
54429;DHT22;40337;52.978;6.310;2022-09-01T18:03:38;20.50;73.10
54429;DHT22;40337;52.978;6.310;2022-09-01T18:06:20;20.40;73.30
54429;DHT22;40337;52.978;6.310;2022-09-01T18:08:50;20.30;73.10
54429;DHT22;40337;52.978;6.310;2022-09-01T18:11:46;20.20;72.90
54429;DHT22;40337;52.978;6.310;2022-09-01T18:14:15;20.10;73.80
54429;DHT22;40337;52.978;6.310;2022-09-01T18:16:59;20.00;74.30
54429;DHT22;40337;52.978;6.310;2022-09-01T18:19:35;19.90;73.90
54429;DHT22;40337;52.978;6.310;2022-09-01T18:22:05;19.80;74.30
54429;DHT22;40337;52.978;6.310;2022-09-01T18:27:03;19.60;75.60
54429;DHT22;40337;52.978;6.310;2022-09-01T18:29:29;19.50;75.90
54429;DHT22;40337;52.978;6.310;2022-09-01T18:32:32;19.40;76.00
54429;DHT22;40337;52.978;6.310;2022-09-01T18:43:22;19.10;77.10
54429;DHT22;40337;52.978;6.310;2022-09-01T18:45:57;19.00;77.80
54429;DHT22;40337;52.978;6.310;2022-09-01T18:54:02;18.80;78.30
54429;DHT22;40337;52.978;6.310;2022-09-01T19:01:58;18.50;78.60
54429;DHT22;40337;52.978;6.310;2022-09-01T19:09:48;18.40;79.30
54429;DHT22;40337;52.978;6.310;2022-09-01T19:14:51;18.30;79.40
54429;DHT22;40337;52.978;6.310;2022-09-01T19:17:35;18.30;79.20
54429;DHT22;40337;52.978;6.310;2022-09-01T19:20:11;18.20;79.50
54429;DHT22;40337;52.978;6.310;2022-09-01T19:25:17;18.10;80.00
54429;DHT22;40337;52.978;6.310;2022-09-01T19:28:14;18.00;80.00
54429;DHT22;40337;52.978;6.310;2022-09-01T19:33:23;18.00;80.50
54429;DHT22;40337;52.978;6.310;2022-09-01T19:35:54;18.00;80.80
54429;DHT22;40337;52.978;6.310;2022-09-01T19:38:24;17.90;81.70
54429;DHT22;40337;52.978;6.310;2022-09-01T19:40:59;17.90;82.50
54429;DHT22;40337;52.978;6.310;2022-09-01T19:43:33;17.80;83.50
54429;DHT22;40337;52.978;6.310;2022-09-01T19:48:34;17.80;85.20
54429;DHT22;40337;52.978;6.310;2022-09-01T19:51:16;17.80;86.10
54429;DHT22;40337;52.978;6.310;2022-09-01T19:56:17;17.60;87.90
54429;DHT22;40337;52.978;6.310;2022-09-01T20:01:45;17.60;90.10
54429;DHT22;40337;52.978;6.310;2022-09-01T20:07:01;17.50;91.20
54429;DHT22;40337;52.978;6.310;2022-09-01T20:09:37;17.50;91.60
54429;DHT22;40337;52.978;6.310;2022-09-01T20:14:54;17.40;92.80
54429;DHT22;40337;52.978;6.310;2022-09-01T20:20:20;17.40;93.80
54429;DHT22;40337;52.978;6.310;2022-09-01T20:23:08;17.30;94.40
54429;DHT22;40337;52.978;6.310;2022-09-01T20:25:47;17.30;95.10
54429;DHT22;40337;52.978;6.310;2022-09-01T20:31:18;17.20;96.00
54429;DHT22;40337;52.978;6.310;2022-09-01T20:34:00;17.10;96.60
54429;DHT22;40337;52.978;6.310;2022-09-01T20:36:42;17.10;97.30
54429;DHT22;40337;52.978;6.310;2022-09-01T20:39:17;17.00;97.70
54429;DHT22;40337;52.978;6.310;2022-09-01T20:42:07;17.00;98.20
54429;DHT22;40337;52.978;6.310;2022-09-01T20:44:54;16.90;98.60
54429;DHT22;40337;52.978;6.310;2022-09-01T20:47:25;16.90;99.00
54429;DHT22;40337;52.978;6.310;2022-09-01T20:49:51;16.90;99.30
54429;DHT22;40337;52.978;6.310;2022-09-01T20:55:09;16.80;99.90
54429;DHT22;40337;52.978;6.310;2022-09-01T21:00:20;16.70;99.90
54429;DHT22;40337;52.978;6.310;2022-09-01T21:02:59;16.70;99.90
54429;DHT22;40337;52.978;6.310;2022-09-01T21:11:36;16.70;99.90
54429;DHT22;40337;52.978;6.310;2022-09-01T21:14:27;16.60;99.90
54429;DHT22;40337;52.978;6.310;2022-09-01T21:19:53;16.50;99.90
54429;DHT22;40337;52.978;6.310;2022-09-01T21:22:22;16.50;99.90
54429;DHT22;40337;52.978;6.310;2022-09-01T21:24:48;16.40;99.90
54429;DHT22;40337;52.978;6.310;2022-09-01T21:27:23;16.40;99.90
54429;DHT22;40337;52.978;6.310;2022-09-01T21:30:00;16.30;99.90
54429;DHT22;40337;52.978;6.310;2022-09-01T21:32:29;16.30;99.90
54429;DHT22;40337;52.978;6.310;2022-09-01T21:34:56;16.20;99.90
54429;DHT22;40337;52.978;6.310;2022-09-01T21:37:23;16.20;99.90
54429;DHT22;40337;52.978;6.310;2022-09-01T21:39:50;16.20;99.90
54429;DHT22;40337;52.978;6.310;2022-09-01T21:42:29;16.20;99.90
54429;DHT22;40337;52.978;6.310;2022-09-01T21:44:56;16.20;99.90
54429;DHT22;40337;52.978;6.310;2022-09-01T21:47:23;16.10;99.90
54429;DHT22;40337;52.978;6.310;2022-09-01T21:49:49;16.10;99.90
54429;DHT22;40337;52.978;6.310;2022-09-01T21:52:15;16.00;99.90
54429;DHT22;40337;52.978;6.310;2022-09-01T21:54:41;16.00;99.90
54429;DHT22;40337;52.978;6.310;2022-09-01T21:57:06;16.00;99.90
54429;DHT22;40337;52.978;6.310;2022-09-01T21:59:32;15.90;99.90
54429;DHT22;40337;52.978;6.310;2022-09-01T22:01:58;15.80;99.90
54429;DHT22;40337;52.978;6.310;2022-09-01T22:04:25;15.80;99.90
54429;DHT22;40337;52.978;6.310;2022-09-01T22:06:51;15.80;99.90
54429;DHT22;40337;52.978;6.310;2022-09-01T22:09:18;15.80;99.90
54429;DHT22;40337;52.978;6.310;2022-09-01T22:11:44;15.70;99.90
54429;DHT22;40337;52.978;6.310;2022-09-01T22:14:10;15.70;99.90
54429;DHT22;40337;52.978;6.310;2022-09-01T22:16:36;15.70;99.90
54429;DHT22;40337;52.978;6.310;2022-09-01T22:19:04;15.70;99.90
54429;DHT22;40337;52.978;6.310;2022-09-01T22:21:30;15.60;99.90
54429;DHT22;40337;52.978;6.310;2022-09-01T22:23:56;15.60;99.90
54429;DHT22;40337;52.978;6.310;2022-09-01T22:26:26;15.50;99.90
54429;DHT22;40337;52.978;6.310;2022-09-01T22:29:00;15.50;99.90
54429;DHT22;40337;52.978;6.310;2022-09-01T22:31:28;15.50;99.90
54429;DHT22;40337;52.978;6.310;2022-09-01T22:33:55;15.40;99.90
54429;DHT22;40337;52.978;6.310;2022-09-01T22:36:22;15.40;99.90
54429;DHT22;40337;52.978;6.310;2022-09-01T22:38:49;15.40;99.90
54429;DHT22;40337;52.978;6.310;2022-09-01T22:41:22;15.30;99.90
54429;DHT22;40337;52.978;6.310;2022-09-01T22:43:48;15.30;99.90
54429;DHT22;40337;52.978;6.310;2022-09-01T22:46:15;15.30;99.90
54429;DHT22;40337;52.978;6.310;2022-09-01T22:48:42;15.30;99.90
54429;DHT22;40337;52.978;6.310;2022-09-01T22:51:09;15.20;99.90
54429;DHT22;40337;52.978;6.310;2022-09-01T22:53:36;15.20;99.90
54429;DHT22;40337;52.978;6.310;2022-09-01T22:56:09;15.20;99.90
54429;DHT22;40337;52.978;6.310;2022-09-01T22:58:35;15.20;99.90
54429;DHT22;40337;52.978;6.310;2022-09-01T23:01:00;15.10;99.90
54429;DHT22;40337;52.978;6.310;2022-09-01T23:03:27;15.10;99.90
54429;DHT22;40337;52.978;6.310;2022-09-01T23:06:22;15.00;99.90
54429;DHT22;40337;52.978;6.310;2022-09-01T23:08:48;15.00;99.90
54429;DHT22;40337;52.978;6.310;2022-09-01T23:11:14;14.90;99.90
54429;DHT22;40337;52.978;6.310;2022-09-01T23:13:40;14.90;99.90
54429;DHT22;40337;52.978;6.310;2022-09-01T23:16:08;14.90;99.90
54429;DHT22;40337;52.978;6.310;2022-09-01T23:18:36;14.80;99.90
54429;DHT22;40337;52.978;6.310;2022-09-01T23:21:03;14.80;99.90
54429;DHT22;40337;52.978;6.310;2022-09-01T23:23:30;14.80;99.90
54429;DHT22;40337;52.978;6.310;2022-09-01T23:25:56;14.70;99.90
54429;DHT22;40337;52.978;6.310;2022-09-01T23:28:21;14.70;99.90
54429;DHT22;40337;52.978;6.310;2022-09-01T23:30:48;14.70;99.90
54429;DHT22;40337;52.978;6.310;2022-09-01T23:33:18;14.70;99.90
54429;DHT22;40337;52.978;6.310;2022-09-01T23:35:47;14.70;99.90
54429;DHT22;40337;52.978;6.310;2022-09-01T23:38:14;14.60;99.90
54429;DHT22;40337;52.978;6.310;2022-09-01T23:40:45;14.60;99.90
54429;DHT22;40337;52.978;6.310;2022-09-01T23:43:11;14.60;99.90
54429;DHT22;40337;52.978;6.310;2022-09-01T23:45:49;14.50;99.90
54429;DHT22;40337;52.978;6.310;2022-09-01T23:48:16;14.50;99.90
54429;DHT22;40337;52.978;6.310;2022-09-01T23:50:45;14.50;99.90
54429;DHT22;40337;52.978;6.310;2022-09-01T23:53:12;14.50;99.90
54429;DHT22;40337;52.978;6.310;2022-09-01T23:55:46;14.50;99.90
54429;DHT22;40337;52.978;6.310;2022-09-01T23:58:12;14.40;99.90
